Pagrindinis puslapis
METAR-TAF:

METAR-TAF

Oro uostai :

Merzifon, Turkija

platuma: 40-51N, ilguma: 035-35E, Aukštis: 545 m

Dabartinis oras

Ataskaita buvo paskelbta 30 minutes, ne 23:20 UTC
Vėjas 6 kt iš Šiaurės Vakarų
Temperatūra 15°C
Drėgmė 51%
Slėgis 1016 hPa
Matomumas 10 km arba daugiau
nėra debesų žemiau 1500 m ir nėra kamuolinių lietaus debesų

METAR: LTAP 182320Z 31006KT CAVOK 15/05 Q1016 NOSIG RMK RWY23 VRB03KT

Laikas: 02:50 (23:50 UTC)

Prognozė

Ataskaita buvo paskelbta 1 valandą ir 10 minutes, ne 22:40 UTC
Prognozė galioja nuo 19 metu 00 UTC su 19 metu 24 UTC
Vėjas 2 kt nuo kintamojo kryptimis
Matomumas 10 km arba daugiau
nėra debesų žemiau 1500 m ir nėra kamuolinių lietaus debesų
Tapsmas
nuo 19 metu 06 UTC su 19 metu 09 UTC
Išsisklaidę debesys ne aukštis 4000 ft
Tapsmas
nuo 19 metu 09 UTC su 19 metu 12 UTC
Vėjas 12 kt iš Šiaurės/Šiaurės Rytų
Tapsmas
nuo 19 metu 15 UTC su 19 metu 18 UTC
Vėjas 2 kt nuo kintamojo kryptimis

TAF: LTAP 182240Z 1900/1924 VRB02KT CAVOK BECMG 1906/1909 SCT040 BECMG 1909/1912 02012KT BECMG 1915/1918 VRB02KT

Orai ataskaitas ir orų prognozės (METAR, TAF).

turimą stotys yra geltonos ir raudonos taškus žemėlapyje.

Perkelti pele per norėdami pamatyti stoties vardą.

Tada spustelėkite, norėdami matyti oro stebėjimo ir prognozės.

Norėdami pakeisti žemėlapį: spustelėkite ant žalios mygtukų su juodo kryžiaus žemyn,; žalią mygtuką su brūkšneliu, jei norite nutolinti; arba žalių rodyklių gretimoms žemėlapius.


METAR-TAF: